This is the latest recevied weather packets stored in our database for station/object N4OOJ-13. If no packets are shown the sender has not sent any weather packets the latest 10 day(s).
| Time | Temp. | Humidity | Pressure | Rain* | Wind** | Luminosity | Snow |
|---|---|---|---|---|---|---|---|
| 1787622620 | 26.67° C | 90% | 1016.8 hPa | 0 mm | - | - | - |
| 1787622031 | 26.67° C | 91% | 1016.8 hPa | 0 mm | - | - | - |
| 1787621421 | 26.67° C | 92% | 1016.7 hPa | 0 mm | - | - | - |
| 1787620821 | 26.67° C | 92% | 1016.5 hPa | 0 mm | - | - | - |
| 1787620220 | 26.67° C | 91% | 1016.3 hPa | 0 mm | - | - | - |
| 1787619620 | 27.22° C | 90% | 1016.2 hPa | 0 mm | - | - | - |
| 1787619015 | 27.78° C | 88% | 1016 hPa | 0 mm | - | - | - |
| 1787618428 | 28.33° C | 86% | 1015.7 hPa | 0 mm | - | - | - |
| 1787617828 | 28.33° C | 85% | 1015.5 hPa | 0 mm | - | - | - |
| 1787617228 | 28.89° C | 82% | 1015.4 hPa | 0 mm | - | - | - |
| 1787616621 | 29.44° C | 79% | 1015.2 hPa | 0 mm | - | - | - |
| 1787616016 | 30.56° C | 76% | 1015.1 hPa | 0 mm | - | - | - |
| 1787615430 | 30.56° C | 72% | 1015.1 hPa | 0 mm | - | - | - |
| 1787614826 | 31.67° C | 67% | 1015.1 hPa | 0 mm | - | - | - |
| 1787614225 | 32.22° C | 63% | 1015.1 hPa | 0 mm | - | - | - |
| 1787613625 | 33.33° C | 58% | 1014.9 hPa | 0 mm | - | - | - |
| 1787613025 | 35° C | 53% | 1014.9 hPa | 0 mm | - | - | - |
| 1787612424 | 36.67° C | 48% | 1014.8 hPa | 0 mm | - | - | - |
| 1787611822 | 37.78° C | 48% | 1014.7 hPa | 0 mm | - | - | - |
| 1787611227 | 37.78° C | 48% | 1014.7 hPa | 0 mm | - | - | - |
| 1787610621 | 38.33° C | 46% | 1014.5 hPa | 0 mm | - | - | - |
| 1787610016 | 37.78° C | 46% | 1014.5 hPa | 0 mm | - | - | - |
| 1787609417 | 36.11° C | 48% | 1014.5 hPa | 0 mm | - | - | - |
| 1787608829 | 36.11° C | 48% | 1014.5 hPa | 0 mm | - | - | - |
| 1787608227 | 36.11° C | 51% | 1014.5 hPa | 0 mm | - | - | - |
* Rain latest hour (hover to see other rain measurements)
** Current wind speed in m/s (hover to see current wind gust speed)